Sand Spring Valley, Nevada Weather observations

Data are for 10 minute period ending at time listed.
 Day   Time   Solar   Ave.   Ave.  Ave.  Vector  Max.   Baro.   Total    
  of    of     Rad.   Air    Rel.  Wind   Wind   Wind  Press.  Precip.   
Year   Day            Temp.  Hum.  Speed  Dir.   Gust                    
2014   (PST)  Kw/m2    F      %     mph   deg.    mph    mb.     in.     
-------------------------------------------------------------------------
 274    4:00   0.00   50.4    65    5.8   294     9.9   850.1    0.00 
 274    4:10   0.00   50.5    64    6.5   310     9.2   850.3    0.00 
 274    4:20   0.00   50.8    62    1.5   332     5.6   850.5    0.00 
 274    4:30   0.00   50.8    62    3.8   337     6.9   850.5    0.00 
 274    4:40   0.00   50.3    63    7.5   309    13.4   850.7    0.00 
 274    4:50   0.00   50.3    62    9.8   299    14.4   850.9    0.00 
 274    5:00   0.00   49.6    63    8.0   307    12.9   851.1    0.00 
 274    5:10   0.00   49.1    63    8.8   308    13.9   851.2    0.00 
 274    5:20   0.00   48.6    64   10.3   303    13.2   851.3    0.00 
 274    5:30   0.00   47.8    65   10.5   303    15.3   851.4    0.00 
 274    5:40   0.00   47.5    65   10.0   303    13.6   851.6    0.00 
 274    5:50   0.00   47.1    66   10.9   303    15.8   851.8    0.00 
 274    6:00   0.00   47.0    65   10.8   305    14.2   852.0    0.00 
 274    6:10   0.00   47.0    65    9.5   310    12.7   852.2    0.00 
 274    6:20   0.00   47.6    63   10.1   304    14.5   852.5    0.00 
 274    6:30   0.00   48.1    62    9.2   306    13.2   852.7    0.00 
 274    6:40   0.00   48.8    61    8.2   302    11.5   852.9    0.00 
 274    6:50   0.00   49.4    60    8.0   289    11.5   853.0    0.00 
 274    7:00   0.00   50.3    60    6.8   301    10.4   853.2    0.00 
 274    7:10   0.00   51.3    55    8.6   311    12.4   853.2    0.00 
 274    7:20   0.04   51.8    55    7.7   305    11.1   853.2    0.00 
 274    7:30   0.22   52.6    52    7.8   307    11.5   853.3    0.00 
 274    7:40   0.25   53.4    49    7.3   318    12.0   853.4    0.00 
 274    7:50   0.18   54.8    41    6.9   333    11.0   853.4    0.00 
 274    8:00   0.16   54.8    42    6.2   321    10.1   853.6    0.00 
 274    8:10   0.16   55.4    41    7.2   313    15.5   853.7    0.00 
 274    8:20   0.14   55.8    37    7.9   334    13.4   853.8    0.00 
 274    8:30   0.22   57.2    30    8.6     1    15.3   853.8    0.00 
 274    8:40   0.12   57.5    30    9.7   349    13.8   854.0    0.00 
 274    8:50   0.15   56.7    34   10.1   330    15.2   854.2    0.00 
 274    9:00   0.56   56.2    40   11.2   319    16.9   854.3    0.00 
 274    9:10   0.49   55.5    38   12.8   313    18.6   854.3    0.00 
 274    9:20   0.43   55.8    38   12.3   316    18.8   854.4    0.00 
 274    9:30   0.22   56.5    35   10.9   315    16.0   854.4    0.00 
 274    9:40   0.33   56.5    37   11.7   317    18.0   854.4    0.00 
 274    9:50   0.33   56.3    37   11.3   306    17.1   854.4    0.00 
 274   10:00   0.37   57.3    33   10.3   320    19.6   854.4    0.00 
 274   10:10   0.00   57.5    35   10.5   313    18.6   854.5    0.00 
 274   10:20   0.08   57.7    33   10.9   318    16.1   854.6    0.00 
 274   10:30   0.69   57.7    34   13.2   312    19.6   854.5    0.00 
 274   10:40   0.64   58.4    28   12.8   331    18.6   854.4    0.00 
 274   10:50   0.54   58.6    31   13.6   321    21.9   854.3    0.00 
 274   11:00   0.14   58.8    31   13.8   319    19.7   854.2    0.00 
 274   11:10   0.37   58.7    29   15.7   322    23.4   854.0    0.00 
 274   11:20   0.64   59.0    29   12.8   309    21.0   854.0    0.00 
 274   11:30   0.37   60.1    27   11.8   324    18.6   854.0    0.00 
 274   11:40   0.60   61.2    22   12.3   338    20.0   853.9    0.00 
 274   11:50   0.33   61.1    25    9.6   327    18.8   853.9    0.00 
 274   12:00   0.23   62.0    20    6.9   357    16.4   853.8    0.00 
 274   12:10   0.32   62.0    18    5.9    15    10.5   853.8    0.00 
 274   12:20   0.40   62.3    20    9.9   334    16.3   853.8    0.00 
 274   12:30   0.31   61.1    23   12.4   316    19.6   853.8    0.00 
 274   12:40   0.74   60.9    25   12.5   309    20.5   853.7    0.00 
 274   12:50   0.70   62.5    20    9.2   326    16.5   853.7    0.00 
 274   13:00   0.64   62.6    21   12.7   326    19.8   853.6    0.00 
 274   13:10   0.65   62.1    24   11.6   318    17.6   853.5    0.00 
 274   13:20   0.53   63.1    22   12.5   329    18.9   853.5    0.00 
 274   13:30   0.62   62.5    22   12.9   322    22.0   853.6    0.00 
 274   13:40   0.55   62.4    22   12.0   323    22.7   853.7    0.00 
 274   13:50   0.54   62.5    22   12.9   323    19.4   853.8    0.00 
 274   14:00   0.59   62.9    21   13.7   324    22.3   853.9    0.00 
 274   14:10   0.59   61.9    24   10.9   310    17.0   854.0    0.00 
 274   14:20   0.48   62.5    22   10.8   321    17.9   853.9    0.00 
 274   14:30   0.52   63.7    16   10.2   333    16.8   853.8    0.00 
 274   14:40   0.52   62.8    21    8.3   325    13.8   853.8    0.00 
 274   14:50   0.49   62.9    19   10.8   323    17.3   853.7    0.00 
 274   15:00   0.46   63.5    17    8.5   334    14.9   853.6    0.00 
 274   15:10   0.43   64.8    13    9.1   354    16.5   853.6    0.00 
 274   15:20   0.40   64.3    15    8.2   336    13.1   853.6    0.00 
 274   15:30   0.37   64.7    13    7.3    39    12.6   853.7    0.00 
 274   15:40   0.34   64.9    13    6.6    30    11.5   853.8    0.00 
 274   15:50   0.30   64.7    13    5.8    24    10.2   853.9    0.00 
 274   16:00   0.27   64.9    12    6.5     0    11.4   853.9    0.00 
 274   16:10   0.24   64.9    12    4.5    12     8.9   853.9    0.00 
 274   16:20   0.21   64.4    13    6.3    14    11.4   853.9    0.00 
 274   16:30   0.08   64.3    12    6.9     8    10.9   854.0    0.00 
 274   16:40   0.03   63.5    14    5.5    17    10.2   854.1    0.00 
 274   16:50   0.08   63.2    14    4.5    13     7.5   854.2    0.00 
 274   17:00   0.08   62.9    14    4.1   358     7.9   854.3    0.00 
 274   17:10   0.06   61.9    15    4.4   356     8.3   854.3    0.00 
 274   17:20   0.03   61.3    15    3.9     2     8.6   854.3    0.00 
 274   17:30   0.01   59.5    18    3.6   357     6.1   854.4    0.00 
 274   17:40   0.00   55.2    24    4.0   330     5.8   854.4    0.00 
 274   17:50   0.00   54.9    23    4.4   341     6.6   854.3    0.00 
 274   18:00   0.00   52.3    28    3.8   324     4.7   854.3    0.00 
 274   18:10   0.00   50.4    30    3.2   300     3.9   854.3    0.00 
 274   18:20   0.00   54.3    21    3.3   294     3.9   854.3    0.00 
 274   18:30   0.00   51.9    26    2.9   312     3.8   854.3    0.00 
 274   18:40   0.00   52.4    24    3.3   308     4.2   854.5    0.00 
 274   18:50   0.00   51.4    25    2.8   317     3.7   854.6    0.00 
 274   19:00   0.00   49.0    31    1.6    17     3.6   854.7    0.00 
 274   19:10   0.00   49.3    27    2.5    42     3.8   854.7    0.00 
 274   19:20   0.00   51.7    22    2.9    46     3.7   854.9    0.00 
 274   19:30   0.00   52.5    22    2.9     6     5.2   855.1    0.00 
 274   19:40   0.00   48.5    29    2.9   241     5.0   855.2    0.00 
 274   19:50   0.00   46.1    36    2.2   303     3.0   855.2    0.00 
 274   20:00   0.00   49.2    28    2.2   338     3.4   855.4    0.00 
 274   20:10   0.00   43.5    44    3.9   255     6.6   855.5    0.00 
 274   20:20   0.00   38.6    54    6.2   242     6.9   855.7    0.00 
 274   20:30   0.00   37.7    56    4.8   243     6.0   855.9    0.00 
 274   20:40   0.00   38.7    49    5.1   244     6.1   855.9    0.00 
 274   20:50   0.00   37.7    54    4.4   236     6.1   856.0    0.00 
 274   21:00   0.00   36.9    57    4.0   242     5.0   856.0    0.00 
 274   21:10   0.00   35.9    60    5.2   237     6.3   856.1    0.00 
 274   21:20   0.00   35.0    62    6.4   221     7.4   856.3    0.00 
 274   21:30   0.00   35.5    61    6.2   228     8.0   856.3    0.00 
 274   21:40   0.00   34.9    65    5.3   222     6.6   856.5    0.00 
 274   21:50   0.00   34.6    66    5.7   222     6.7   856.5    0.00 
 274   22:00   0.00   34.0    68    4.7   221     5.9   856.5    0.00 
 274   22:10   0.00   34.1    66    6.1   208     7.3   856.7    0.00 
 274   22:20   0.00   34.8    63    5.9   217     7.8   856.8    0.00 
 274   22:30   0.00   35.7    60    6.9   207     7.8   856.8    0.00 
 274   22:40   0.00   35.9    60    5.3   212     7.7   856.9    0.00 
 274   22:50   0.00   38.2    55    4.9   245     6.3   856.8    0.00 
 274   23:00   0.00   38.7    54    1.1   124     3.7   856.8    0.00 
 274   23:10   0.00   37.1    56    0.9   180     3.0   856.9    0.00 
 274   23:20   0.00   39.5    49    1.5   169     3.4   856.9    0.00 
 274   23:30   0.00   38.7    51    0.4   186     2.2   856.9    0.00 
 274   23:40   0.00   38.5    51    3.5   190     5.8   856.9    0.00 
 274   23:50   0.00   39.8    47    3.1   211     4.0   856.9    0.00 
 275    0:00   0.00   37.7    54    3.8   214     4.7   856.9    0.00 
 275    0:10   0.00   33.9    64    1.6    76     3.7   857.0    0.00 
 275    0:20   0.00   34.3    62    0.4   172     3.0   857.2    0.00 
 275    0:30   0.00   33.9    68    4.9   238     6.2   857.4    0.00 
 275    0:40   0.00   32.8    67    5.4   237     6.6   857.6    0.00 
 275    0:50   0.00   35.1    60    7.2   229     9.3   857.7    0.00 
 275    1:00   0.00   37.5    54    5.1   240     7.6   857.8    0.00 
 275    1:10   0.00   37.3    53    3.4   246     6.4   857.8    0.00 
 275    1:20   0.00   34.6    62    3.1   166     4.7   857.9    0.00 
 275    1:30   0.00   34.3    63    1.5   183     3.7   857.9    0.00 
 275    1:40   0.00   34.1    64    2.1   255     3.1   858.0    0.00 
 275    1:50   0.00   36.0    57    2.9   232     3.8   858.0    0.00 
 275    2:00   0.00   34.3    62    3.7   203     4.8   857.9    0.00 
 275    2:10   0.00   33.5    64    4.4   208     6.4   857.8    0.00 
 275    2:20   0.00   32.5    67    4.0   224     6.1   857.7    0.00 
 275    2:30   0.00   31.0    73    4.0   225     4.9   857.7    0.00 
 275    2:40   0.00   30.5    76    3.7   238     4.4   857.8    0.00 
 275    2:50   0.00   31.2    71    2.6   236     4.3   857.9    0.00 
 275    3:00   0.00   31.4    69    3.7   231     4.5   858.0    0.00 
 275    3:10   0.00   31.3    71    3.8   220     4.5   858.1    0.00 
 275    3:20   0.00   30.7    73    1.6   205     4.2   858.2    0.00 
 275    3:30   0.00   31.1    75    3.9   221     5.1   858.2    0.00 
 275    3:40   0.00   32.7    70    2.7   266     5.0   858.3    0.00 
 275    3:50   0.00   32.8    67    4.8   251     5.7   858.4    0.00 

Return to Sand Spring Valley graphs page.


Western Regional Climate Center,wrcc@dri.edu